sensor_id;sensor_type;location;lat;lon;timestamp;P1;durP1;ratioP1;P2;durP2;ratioP2
18580;SDS011;9420;50.876;7.012;2023-03-11T00:00:33;5.00;;;1.37;;
18580;SDS011;9420;50.876;7.012;2023-03-11T00:03:03;5.37;;;1.70;;
18580;SDS011;9420;50.876;7.012;2023-03-11T00:05:33;4.63;;;1.50;;
18580;SDS011;9420;50.876;7.012;2023-03-11T00:08:03;6.77;;;1.73;;
18580;SDS011;9420;50.876;7.012;2023-03-11T00:10:32;7.03;;;1.63;;
18580;SDS011;9420;50.876;7.012;2023-03-11T00:13:02;5.10;;;1.63;;
18580;SDS011;9420;50.876;7.012;2023-03-11T00:15:32;3.70;;;1.90;;
18580;SDS011;9420;50.876;7.012;2023-03-11T00:17:59;7.80;;;1.63;;
18580;SDS011;9420;50.876;7.012;2023-03-11T00:20:27;6.80;;;2.43;;
18580;SDS011;9420;50.876;7.012;2023-03-11T00:22:56;12.47;;;2.33;;
18580;SDS011;9420;50.876;7.012;2023-03-11T00:25:26;6.43;;;2.13;;
18580;SDS011;9420;50.876;7.012;2023-03-11T00:27:56;8.00;;;2.20;;
18580;SDS011;9420;50.876;7.012;2023-03-11T00:30:26;6.53;;;1.47;;
18580;SDS011;9420;50.876;7.012;2023-03-11T00:32:55;4.93;;;1.57;;
18580;SDS011;9420;50.876;7.012;2023-03-11T00:35:25;15.60;;;3.23;;
18580;SDS011;9420;50.876;7.012;2023-03-11T00:37:54;14.73;;;2.07;;
18580;SDS011;9420;50.876;7.012;2023-03-11T00:40:24;14.20;;;2.40;;
18580;SDS011;9420;50.876;7.012;2023-03-11T00:42:54;6.20;;;2.03;;
18580;SDS011;9420;50.876;7.012;2023-03-11T00:45:21;13.70;;;2.53;;
18580;SDS011;9420;50.876;7.012;2023-03-11T00:47:51;11.90;;;3.13;;
18580;SDS011;9420;50.876;7.012;2023-03-11T00:50:20;5.97;;;1.50;;
18580;SDS011;9420;50.876;7.012;2023-03-11T00:52:51;12.67;;;1.93;;
18580;SDS011;9420;50.876;7.012;2023-03-11T00:55:19;10.77;;;2.20;;
18580;SDS011;9420;50.876;7.012;2023-03-11T00:57:50;6.10;;;2.33;;
18580;SDS011;9420;50.876;7.012;2023-03-11T01:00:19;9.30;;;2.23;;
18580;SDS011;9420;50.876;7.012;2023-03-11T01:02:48;9.83;;;2.33;;
18580;SDS011;9420;50.876;7.012;2023-03-11T01:05:18;11.80;;;2.40;;
18580;SDS011;9420;50.876;7.012;2023-03-11T01:07:47;4.27;;;1.53;;
18580;SDS011;9420;50.876;7.012;2023-03-11T01:10:15;7.67;;;2.40;;
18580;SDS011;9420;50.876;7.012;2023-03-11T01:12:43;14.63;;;2.63;;
18580;SDS011;9420;50.876;7.012;2023-03-11T01:15:14;8.03;;;2.33;;
18580;SDS011;9420;50.876;7.012;2023-03-11T01:17:44;8.50;;;2.77;;
18580;SDS011;9420;50.876;7.012;2023-03-11T01:20:12;9.13;;;2.63;;
18580;SDS011;9420;50.876;7.012;2023-03-11T01:22:41;7.63;;;1.87;;
18580;SDS011;9420;50.876;7.012;2023-03-11T01:25:09;6.73;;;2.67;;
18580;SDS011;9420;50.876;7.012;2023-03-11T01:27:39;16.67;;;2.20;;
18580;SDS011;9420;50.876;7.012;2023-03-11T01:30:07;14.77;;;3.20;;
18580;SDS011;9420;50.876;7.012;2023-03-11T01:32:38;6.47;;;2.13;;
18580;SDS011;9420;50.876;7.012;2023-03-11T01:35:06;9.83;;;2.37;;
18580;SDS011;9420;50.876;7.012;2023-03-11T01:37:36;8.47;;;2.60;;
18580;SDS011;9420;50.876;7.012;2023-03-11T01:40:05;15.60;;;2.13;;
18580;SDS011;9420;50.876;7.012;2023-03-11T01:42:39;7.53;;;1.97;;
18580;SDS011;9420;50.876;7.012;2023-03-11T01:45:12;7.37;;;2.40;;
18580;SDS011;9420;50.876;7.012;2023-03-11T01:48:35;14.63;;;2.40;;
18580;SDS011;9420;50.876;7.012;2023-03-11T01:51:03;6.23;;;2.40;;
18580;SDS011;9420;50.876;7.012;2023-03-11T01:53:33;10.13;;;2.47;;
18580;SDS011;9420;50.876;7.012;2023-03-11T01:56:02;7.33;;;1.97;;
18580;SDS011;9420;50.876;7.012;2023-03-11T01:58:33;6.60;;;1.83;;
18580;SDS011;9420;50.876;7.012;2023-03-11T02:01:09;8.47;;;2.30;;
18580;SDS011;9420;50.876;7.012;2023-03-11T02:03:38;5.63;;;1.57;;
18580;SDS011;9420;50.876;7.012;2023-03-11T02:06:08;10.87;;;1.97;;
18580;SDS011;9420;50.876;7.012;2023-03-11T02:08:39;12.07;;;2.43;;
18580;SDS011;9420;50.876;7.012;2023-03-11T02:11:11;9.80;;;2.47;;
18580;SDS011;9420;50.876;7.012;2023-03-11T02:13:43;7.33;;;2.00;;
18580;SDS011;9420;50.876;7.012;2023-03-11T02:16:12;8.17;;;2.23;;
18580;SDS011;9420;50.876;7.012;2023-03-11T02:18:39;9.60;;;2.37;;
18580;SDS011;9420;50.876;7.012;2023-03-11T02:21:12;6.93;;;1.60;;
18580;SDS011;9420;50.876;7.012;2023-03-11T02:23:54;6.50;;;2.20;;
18580;SDS011;9420;50.876;7.012;2023-03-11T02:26:34;6.40;;;2.50;;
18580;SDS011;9420;50.876;7.012;2023-03-11T02:29:09;5.53;;;1.93;;
18580;SDS011;9420;50.876;7.012;2023-03-11T02:31:37;8.97;;;1.90;;
18580;SDS011;9420;50.876;7.012;2023-03-11T02:34:07;5.90;;;1.70;;
18580;SDS011;9420;50.876;7.012;2023-03-11T02:36:41;4.30;;;1.33;;
18580;SDS011;9420;50.876;7.012;2023-03-11T02:39:08;7.13;;;1.70;;
18580;SDS011;9420;50.876;7.012;2023-03-11T02:41:36;14.47;;;2.47;;
18580;SDS011;9420;50.876;7.012;2023-03-11T02:44:05;9.67;;;2.00;;
18580;SDS011;9420;50.876;7.012;2023-03-11T02:46:39;5.87;;;1.73;;
18580;SDS011;9420;50.876;7.012;2023-03-11T02:49:08;8.97;;;1.90;;
18580;SDS011;9420;50.876;7.012;2023-03-11T02:51:36;7.90;;;2.00;;
18580;SDS011;9420;50.876;7.012;2023-03-11T02:54:03;6.63;;;2.67;;
18580;SDS011;9420;50.876;7.012;2023-03-11T02:56:31;18.93;;;2.07;;
18580;SDS011;9420;50.876;7.012;2023-03-11T02:58:59;4.43;;;1.43;;
18580;SDS011;9420;50.876;7.012;2023-03-11T03:01:27;4.77;;;1.93;;
18580;SDS011;9420;50.876;7.012;2023-03-11T03:03:54;3.43;;;1.63;;
18580;SDS011;9420;50.876;7.012;2023-03-11T03:06:21;9.23;;;2.73;;
18580;SDS011;9420;50.876;7.012;2023-03-11T03:08:49;9.10;;;2.23;;
18580;SDS011;9420;50.876;7.012;2023-03-11T03:11:16;10.13;;;2.53;;
18580;SDS011;9420;50.876;7.012;2023-03-11T03:13:43;12.17;;;2.67;;
18580;SDS011;9420;50.876;7.012;2023-03-11T03:16:10;4.13;;;1.73;;
18580;SDS011;9420;50.876;7.012;2023-03-11T03:18:39;5.13;;;1.77;;
18580;SDS011;9420;50.876;7.012;2023-03-11T03:21:06;11.33;;;2.83;;
18580;SDS011;9420;50.876;7.012;2023-03-11T03:23:33;11.07;;;1.87;;
18580;SDS011;9420;50.876;7.012;2023-03-11T03:26:01;3.93;;;1.87;;
18580;SDS011;9420;50.876;7.012;2023-03-11T03:28:29;8.47;;;2.07;;
18580;SDS011;9420;50.876;7.012;2023-03-11T03:31:02;3.00;;;1.60;;
18580;SDS011;9420;50.876;7.012;2023-03-11T03:33:30;5.57;;;1.77;;
18580;SDS011;9420;50.876;7.012;2023-03-11T03:35:58;7.50;;;1.20;;
18580;SDS011;9420;50.876;7.012;2023-03-11T03:38:26;5.17;;;1.43;;
18580;SDS011;9420;50.876;7.012;2023-03-11T03:40:53;9.27;;;1.90;;
18580;SDS011;9420;50.876;7.012;2023-03-11T03:43:20;8.60;;;2.13;;
18580;SDS011;9420;50.876;7.012;2023-03-11T03:45:53;5.13;;;1.60;;
18580;SDS011;9420;50.876;7.012;2023-03-11T03:48:22;7.40;;;1.70;;
18580;SDS011;9420;50.876;7.012;2023-03-11T03:50:49;7.80;;;1.80;;
18580;SDS011;9420;50.876;7.012;2023-03-11T03:53:18;9.83;;;1.93;;
18580;SDS011;9420;50.876;7.012;2023-03-11T03:55:45;10.47;;;2.37;;
18580;SDS011;9420;50.876;7.012;2023-03-11T03:58:13;7.60;;;2.10;;
18580;SDS011;9420;50.876;7.012;2023-03-11T04:00:40;5.67;;;1.83;;
18580;SDS011;9420;50.876;7.012;2023-03-11T04:03:07;5.27;;;2.17;;
18580;SDS011;9420;50.876;7.012;2023-03-11T04:05:34;4.30;;;1.53;;
18580;SDS011;9420;50.876;7.012;2023-03-11T04:08:01;9.00;;;1.77;;
18580;SDS011;9420;50.876;7.012;2023-03-11T04:10:30;12.30;;;1.73;;
18580;SDS011;9420;50.876;7.012;2023-03-11T04:12:57;5.43;;;1.83;;
18580;SDS011;9420;50.876;7.012;2023-03-11T04:15:24;9.70;;;2.63;;
18580;SDS011;9420;50.876;7.012;2023-03-11T04:17:51;14.00;;;2.23;;
18580;SDS011;9420;50.876;7.012;2023-03-11T04:20:18;4.90;;;1.17;;
18580;SDS011;9420;50.876;7.012;2023-03-11T04:22:45;6.47;;;1.43;;
18580;SDS011;9420;50.876;7.012;2023-03-11T04:25:12;12.87;;;2.13;;
18580;SDS011;9420;50.876;7.012;2023-03-11T04:27:40;9.03;;;1.30;;
18580;SDS011;9420;50.876;7.012;2023-03-11T04:30:10;13.67;;;1.50;;
18580;SDS011;9420;50.876;7.012;2023-03-11T04:32:38;7.47;;;2.10;;
18580;SDS011;9420;50.876;7.012;2023-03-11T04:35:05;11.00;;;2.07;;
18580;SDS011;9420;50.876;7.012;2023-03-11T04:37:33;6.47;;;2.10;;
18580;SDS011;9420;50.876;7.012;2023-03-11T04:40:00;13.03;;;3.97;;
18580;SDS011;9420;50.876;7.012;2023-03-11T04:42:28;8.90;;;1.60;;
18580;SDS011;9420;50.876;7.012;2023-03-11T04:44:58;5.63;;;1.50;;
18580;SDS011;9420;50.876;7.012;2023-03-11T04:47:25;8.07;;;1.80;;
18580;SDS011;9420;50.876;7.012;2023-03-11T04:49:52;6.47;;;1.87;;
18580;SDS011;9420;50.876;7.012;2023-03-11T04:52:20;11.03;;;1.70;;
18580;SDS011;9420;50.876;7.012;2023-03-11T04:54:47;8.30;;;1.60;;
18580;SDS011;9420;50.876;7.012;2023-03-11T04:57:14;4.03;;;1.83;;
18580;SDS011;9420;50.876;7.012;2023-03-11T04:59:41;7.67;;;2.43;;
18580;SDS011;9420;50.876;7.012;2023-03-11T05:02:09;10.77;;;2.57;;
18580;SDS011;9420;50.876;7.012;2023-03-11T05:04:37;13.60;;;1.73;;
18580;SDS011;9420;50.876;7.012;2023-03-11T05:07:04;6.30;;;2.33;;
18580;SDS011;9420;50.876;7.012;2023-03-11T05:09:31;4.87;;;1.57;;
18580;SDS011;9420;50.876;7.012;2023-03-11T05:12:00;12.73;;;2.63;;
18580;SDS011;9420;50.876;7.012;2023-03-11T05:14:28;15.07;;;1.87;;
18580;SDS011;9420;50.876;7.012;2023-03-11T05:16:55;7.53;;;1.57;;
18580;SDS011;9420;50.876;7.012;2023-03-11T05:19:23;8.37;;;1.87;;
18580;SDS011;9420;50.876;7.012;2023-03-11T05:21:58;7.80;;;1.57;;
18580;SDS011;9420;50.876;7.012;2023-03-11T05:24:26;10.43;;;1.90;;
18580;SDS011;9420;50.876;7.012;2023-03-11T05:26:54;16.27;;;3.57;;
18580;SDS011;9420;50.876;7.012;2023-03-11T05:29:23;3.10;;;1.63;;
18580;SDS011;9420;50.876;7.012;2023-03-11T05:31:51;6.07;;;1.90;;
18580;SDS011;9420;50.876;7.012;2023-03-11T05:34:18;4.57;;;1.87;;
18580;SDS011;9420;50.876;7.012;2023-03-11T05:36:47;7.07;;;1.90;;
18580;SDS011;9420;50.876;7.012;2023-03-11T05:39:14;8.87;;;2.10;;
18580;SDS011;9420;50.876;7.012;2023-03-11T05:41:41;4.77;;;2.13;;
18580;SDS011;9420;50.876;7.012;2023-03-11T05:44:08;13.10;;;2.67;;
18580;SDS011;9420;50.876;7.012;2023-03-11T05:46:36;5.87;;;2.07;;
18580;SDS011;9420;50.876;7.012;2023-03-11T05:49:02;3.13;;;1.80;;
18580;SDS011;9420;50.876;7.012;2023-03-11T05:51:29;10.60;;;1.87;;
18580;SDS011;9420;50.876;7.012;2023-03-11T05:53:59;8.23;;;2.10;;
18580;SDS011;9420;50.876;7.012;2023-03-11T05:56:26;10.43;;;2.37;;
18580;SDS011;9420;50.876;7.012;2023-03-11T05:58:53;4.90;;;2.00;;
18580;SDS011;9420;50.876;7.012;2023-03-11T06:01:22;7.00;;;1.57;;
18580;SDS011;9420;50.876;7.012;2023-03-11T06:03:49;4.20;;;2.13;;
18580;SDS011;9420;50.876;7.012;2023-03-11T06:06:16;6.27;;;1.90;;
18580;SDS011;9420;50.876;7.012;2023-03-11T06:08:44;7.27;;;2.20;;
18580;SDS011;9420;50.876;7.012;2023-03-11T06:11:15;12.83;;;1.80;;
18580;SDS011;9420;50.876;7.012;2023-03-11T06:13:43;6.87;;;1.57;;
18580;SDS011;9420;50.876;7.012;2023-03-11T06:16:10;3.97;;;2.13;;
18580;SDS011;9420;50.876;7.012;2023-03-11T06:18:37;6.63;;;2.57;;
18580;SDS011;9420;50.876;7.012;2023-03-11T06:21:04;9.40;;;2.07;;
18580;SDS011;9420;50.876;7.012;2023-03-11T06:23:32;7.90;;;1.60;;
18580;SDS011;9420;50.876;7.012;2023-03-11T06:26:00;8.80;;;2.13;;
18580;SDS011;9420;50.876;7.012;2023-03-11T06:28:31;8.07;;;1.90;;
18580;SDS011;9420;50.876;7.012;2023-03-11T06:31:05;6.77;;;1.70;;
18580;SDS011;9420;50.876;7.012;2023-03-11T06:33:32;4.43;;;1.77;;
18580;SDS011;9420;50.876;7.012;2023-03-11T06:36:00;3.33;;;1.77;;
18580;SDS011;9420;50.876;7.012;2023-03-11T06:38:29;8.77;;;2.30;;
18580;SDS011;9420;50.876;7.012;2023-03-11T06:40:57;4.10;;;1.90;;
18580;SDS011;9420;50.876;7.012;2023-03-11T06:43:25;6.77;;;2.63;;
18580;SDS011;9420;50.876;7.012;2023-03-11T06:46:06;10.33;;;2.13;;
18580;SDS011;9420;50.876;7.012;2023-03-11T06:48:35;10.97;;;2.77;;
18580;SDS011;9420;50.876;7.012;2023-03-11T06:51:02;6.97;;;2.27;;
18580;SDS011;9420;50.876;7.012;2023-03-11T06:53:30;10.77;;;2.20;;
18580;SDS011;9420;50.876;7.012;2023-03-11T06:55:58;6.03;;;1.90;;
18580;SDS011;9420;50.876;7.012;2023-03-11T06:58:28;7.93;;;2.00;;
18580;SDS011;9420;50.876;7.012;2023-03-11T07:01:01;7.13;;;2.57;;
18580;SDS011;9420;50.876;7.012;2023-03-11T07:03:29;7.50;;;2.57;;
18580;SDS011;9420;50.876;7.012;2023-03-11T07:05:56;6.17;;;2.63;;
18580;SDS011;9420;50.876;7.012;2023-03-11T07:08:24;3.47;;;1.90;;
18580;SDS011;9420;50.876;7.012;2023-03-11T07:10:58;11.73;;;3.37;;
18580;SDS011;9420;50.876;7.012;2023-03-11T07:13:30;7.93;;;2.27;;
18580;SDS011;9420;50.876;7.012;2023-03-11T07:15:59;8.43;;;2.23;;
18580;SDS011;9420;50.876;7.012;2023-03-11T07:18:27;6.93;;;1.93;;
18580;SDS011;9420;50.876;7.012;2023-03-11T07:20:54;7.43;;;1.70;;
18580;SDS011;9420;50.876;7.012;2023-03-11T07:23:22;6.77;;;2.30;;
18580;SDS011;9420;50.876;7.012;2023-03-11T07:25:49;11.33;;;1.97;;
18580;SDS011;9420;50.876;7.012;2023-03-11T07:28:17;5.87;;;1.93;;
18580;SDS011;9420;50.876;7.012;2023-03-11T07:30:48;8.30;;;2.17;;
18580;SDS011;9420;50.876;7.012;2023-03-11T07:33:16;6.27;;;1.93;;
18580;SDS011;9420;50.876;7.012;2023-03-11T07:35:44;5.60;;;2.23;;
18580;SDS011;9420;50.876;7.012;2023-03-11T07:38:13;5.30;;;2.10;;
18580;SDS011;9420;50.876;7.012;2023-03-11T07:40:41;5.67;;;1.77;;
18580;SDS011;9420;50.876;7.012;2023-03-11T07:43:09;11.73;;;2.90;;
18580;SDS011;9420;50.876;7.012;2023-03-11T07:45:36;6.83;;;2.00;;
18580;SDS011;9420;50.876;7.012;2023-03-11T07:48:05;12.03;;;2.57;;
18580;SDS011;9420;50.876;7.012;2023-03-11T07:50:32;7.77;;;3.23;;
18580;SDS011;9420;50.876;7.012;2023-03-11T07:52:59;9.83;;;3.07;;
18580;SDS011;9420;50.876;7.012;2023-03-11T07:55:26;6.80;;;2.43;;
18580;SDS011;9420;50.876;7.012;2023-03-11T07:57:53;4.70;;;2.33;;
18580;SDS011;9420;50.876;7.012;2023-03-11T08:00:20;5.07;;;2.40;;
18580;SDS011;9420;50.876;7.012;2023-03-11T08:02:47;12.80;;;2.80;;
18580;SDS011;9420;50.876;7.012;2023-03-11T08:05:16;6.47;;;2.83;;
18580;SDS011;9420;50.876;7.012;2023-03-11T08:07:44;5.30;;;2.20;;
18580;SDS011;9420;50.876;7.012;2023-03-11T08:10:11;10.77;;;3.97;;
18580;SDS011;9420;50.876;7.012;2023-03-11T08:12:38;6.37;;;2.50;;
18580;SDS011;9420;50.876;7.012;2023-03-11T08:15:06;9.10;;;2.60;;
18580;SDS011;9420;50.876;7.012;2023-03-11T08:17:34;7.30;;;1.83;;
18580;SDS011;9420;50.876;7.012;2023-03-11T08:20:01;5.00;;;2.27;;
18580;SDS011;9420;50.876;7.012;2023-03-11T08:22:34;6.67;;;2.27;;
18580;SDS011;9420;50.876;7.012;2023-03-11T08:25:01;7.23;;;2.57;;
18580;SDS011;9420;50.876;7.012;2023-03-11T08:27:28;6.50;;;2.40;;
18580;SDS011;9420;50.876;7.012;2023-03-11T08:29:55;6.70;;;2.00;;
18580;SDS011;9420;50.876;7.012;2023-03-11T08:32:23;8.57;;;2.20;;
18580;SDS011;9420;50.876;7.012;2023-03-11T08:34:50;7.47;;;2.10;;
18580;SDS011;9420;50.876;7.012;2023-03-11T08:37:17;5.43;;;1.70;;
18580;SDS011;9420;50.876;7.012;2023-03-11T08:39:45;5.70;;;2.53;;
18580;SDS011;9420;50.876;7.012;2023-03-11T08:42:12;4.90;;;2.43;;
18580;SDS011;9420;50.876;7.012;2023-03-11T08:44:41;13.47;;;2.97;;
18580;SDS011;9420;50.876;7.012;2023-03-11T08:47:08;15.37;;;2.83;;
18580;SDS011;9420;50.876;7.012;2023-03-11T08:49:36;4.73;;;1.97;;
18580;SDS011;9420;50.876;7.012;2023-03-11T08:52:03;9.87;;;3.37;;
18580;SDS011;9420;50.876;7.012;2023-03-11T08:54:31;10.27;;;2.40;;
18580;SDS011;9420;50.876;7.012;2023-03-11T08:56:59;3.00;;;1.70;;
18580;SDS011;9420;50.876;7.012;2023-03-11T08:59:28;4.67;;;1.70;;
18580;SDS011;9420;50.876;7.012;2023-03-11T09:01:56;3.37;;;2.03;;
18580;SDS011;9420;50.876;7.012;2023-03-11T09:04:23;7.40;;;1.40;;
18580;SDS011;9420;50.876;7.012;2023-03-11T09:06:50;3.27;;;1.53;;
18580;SDS011;9420;50.876;7.012;2023-03-11T09:09:17;6.77;;;1.87;;
18580;SDS011;9420;50.876;7.012;2023-03-11T09:11:44;6.37;;;1.87;;
18580;SDS011;9420;50.876;7.012;2023-03-11T09:14:13;8.30;;;1.80;;
18580;SDS011;9420;50.876;7.012;2023-03-11T09:16:40;9.80;;;1.90;;
18580;SDS011;9420;50.876;7.012;2023-03-11T09:19:07;10.63;;;1.57;;
18580;SDS011;9420;50.876;7.012;2023-03-11T09:21:36;6.57;;;1.47;;
18580;SDS011;9420;50.876;7.012;2023-03-11T09:24:03;4.63;;;1.13;;
18580;SDS011;9420;50.876;7.012;2023-03-11T09:26:32;6.13;;;1.00;;
18580;SDS011;9420;50.876;7.012;2023-03-11T09:28:59;4.90;;;1.33;;
18580;SDS011;9420;50.876;7.012;2023-03-11T09:31:27;3.93;;;1.03;;
18580;SDS011;9420;50.876;7.012;2023-03-11T09:33:54;7.57;;;1.33;;
18580;SDS011;9420;50.876;7.012;2023-03-11T09:36:22;5.77;;;1.30;;
18580;SDS011;9420;50.876;7.012;2023-03-11T09:38:50;5.97;;;1.77;;
18580;SDS011;9420;50.876;7.012;2023-03-11T09:44:14;3.33;;;0.80;;
18580;SDS011;9420;50.876;7.012;2023-03-11T09:47:05;4.43;;;0.93;;
18580;SDS011;9420;50.876;7.012;2023-03-11T09:49:54;3.03;;;0.80;;
18580;SDS011;9420;50.876;7.012;2023-03-11T09:52:42;8.30;;;1.03;;
18580;SDS011;9420;50.876;7.012;2023-03-11T09:58:11;3.60;;;0.90;;
18580;SDS011;9420;50.876;7.012;2023-03-11T10:00:44;2.67;;;0.60;;
18580;SDS011;9420;50.876;7.012;2023-03-11T10:03:20;1.43;;;0.60;;
18580;SDS011;9420;50.876;7.012;2023-03-11T10:06:00;3.83;;;1.40;;
18580;SDS011;9420;50.876;7.012;2023-03-11T10:08:39;3.20;;;0.97;;
18580;SDS011;9420;50.876;7.012;2023-03-11T10:14:18;3.23;;;1.20;;
18580;SDS011;9420;50.876;7.012;2023-03-11T10:17:15;3.03;;;1.00;;
18580;SDS011;9420;50.876;7.012;2023-03-11T10:20:04;5.80;;;1.23;;
18580;SDS011;9420;50.876;7.012;2023-03-11T10:22:41;3.60;;;1.17;;
18580;SDS011;9420;50.876;7.012;2023-03-11T10:25:20;6.20;;;1.30;;
18580;SDS011;9420;50.876;7.012;2023-03-11T10:27:54;3.93;;;0.70;;
18580;SDS011;9420;50.876;7.012;2023-03-11T10:30:31;1.27;;;0.67;;
18580;SDS011;9420;50.876;7.012;2023-03-11T10:33:04;4.07;;;1.13;;
18580;SDS011;9420;50.876;7.012;2023-03-11T10:35:40;6.43;;;2.07;;
18580;SDS011;9420;50.876;7.012;2023-03-11T10:38:12;3.70;;;0.90;;
18580;SDS011;9420;50.876;7.012;2023-03-11T10:40:45;3.07;;;1.00;;
18580;SDS011;9420;50.876;7.012;2023-03-11T10:43:15;1.27;;;0.83;;
18580;SDS011;9420;50.876;7.012;2023-03-11T10:45:46;3.33;;;1.40;;
18580;SDS011;9420;50.876;7.012;2023-03-11T10:48:17;2.83;;;0.80;;
18580;SDS011;9420;50.876;7.012;2023-03-11T10:50:49;3.47;;;1.00;;
18580;SDS011;9420;50.876;7.012;2023-03-11T10:53:26;3.07;;;1.10;;
18580;SDS011;9420;50.876;7.012;2023-03-11T10:55:55;3.23;;;1.13;;
18580;SDS011;9420;50.876;7.012;2023-03-11T10:58:25;2.33;;;1.00;;
18580;SDS011;9420;50.876;7.012;2023-03-11T11:01:01;1.57;;;0.67;;
18580;SDS011;9420;50.876;7.012;2023-03-11T11:03:40;2.70;;;1.03;;
18580;SDS011;9420;50.876;7.012;2023-03-11T11:06:18;1.87;;;0.70;;
18580;SDS011;9420;50.876;7.012;2023-03-11T11:09:03;3.20;;;1.17;;
18580;SDS011;9420;50.876;7.012;2023-03-11T11:11:38;8.23;;;0.90;;
18580;SDS011;9420;50.876;7.012;2023-03-11T11:14:05;2.63;;;0.83;;
18580;SDS011;9420;50.876;7.012;2023-03-11T11:16:34;1.00;;;0.50;;
18580;SDS011;9420;50.876;7.012;2023-03-11T11:19:02;4.70;;;1.07;;
18580;SDS011;9420;50.876;7.012;2023-03-11T11:21:37;7.20;;;1.47;;
18580;SDS011;9420;50.876;7.012;2023-03-11T11:24:09;5.97;;;1.23;;
18580;SDS011;9420;50.876;7.012;2023-03-11T11:29:31;4.17;;;0.93;;
18580;SDS011;9420;50.876;7.012;2023-03-11T11:32:09;2.60;;;0.77;;
18580;SDS011;9420;50.876;7.012;2023-03-11T11:34:52;4.53;;;1.00;;
18580;SDS011;9420;50.876;7.012;2023-03-11T11:37:32;1.83;;;1.10;;
18580;SDS011;9420;50.876;7.012;2023-03-11T11:40:04;4.33;;;1.20;;
18580;SDS011;9420;50.876;7.012;2023-03-11T11:42:50;3.07;;;1.03;;
18580;SDS011;9420;50.876;7.012;2023-03-11T11:45:24;3.00;;;0.63;;
18580;SDS011;9420;50.876;7.012;2023-03-11T11:48:03;5.67;;;1.00;;
18580;SDS011;9420;50.876;7.012;2023-03-11T11:50:40;2.17;;;1.03;;
18580;SDS011;9420;50.876;7.012;2023-03-11T11:53:18;1.37;;;1.03;;
18580;SDS011;9420;50.876;7.012;2023-03-11T11:55:53;2.67;;;1.03;;
18580;SDS011;9420;50.876;7.012;2023-03-11T11:58:20;3.77;;;0.90;;
18580;SDS011;9420;50.876;7.012;2023-03-11T12:00:50;1.67;;;0.87;;
18580;SDS011;9420;50.876;7.012;2023-03-11T12:03:43;2.77;;;0.97;;
18580;SDS011;9420;50.876;7.012;2023-03-11T12:06:37;2.97;;;0.97;;
18580;SDS011;9420;50.876;7.012;2023-03-11T12:09:19;1.50;;;0.77;;
18580;SDS011;9420;50.876;7.012;2023-03-11T12:12:00;2.30;;;0.77;;
18580;SDS011;9420;50.876;7.012;2023-03-11T12:14:42;4.47;;;0.90;;
18580;SDS011;9420;50.876;7.012;2023-03-11T12:17:19;2.63;;;0.97;;
18580;SDS011;9420;50.876;7.012;2023-03-11T12:19:50;5.07;;;1.47;;
18580;SDS011;9420;50.876;7.012;2023-03-11T12:25:29;3.63;;;1.67;;
18580;SDS011;9420;50.876;7.012;2023-03-11T12:28:08;2.53;;;1.07;;
18580;SDS011;9420;50.876;7.012;2023-03-11T12:30:47;6.33;;;0.93;;
18580;SDS011;9420;50.876;7.012;2023-03-11T12:33:22;4.43;;;1.30;;
18580;SDS011;9420;50.876;7.012;2023-03-11T12:35:58;1.20;;;0.80;;
18580;SDS011;9420;50.876;7.012;2023-03-11T12:38:29;2.80;;;1.13;;
18580;SDS011;9420;50.876;7.012;2023-03-11T12:41:03;3.30;;;0.83;;
18580;SDS011;9420;50.876;7.012;2023-03-11T12:47:00;7.17;;;1.37;;
18580;SDS011;9420;50.876;7.012;2023-03-11T12:49:44;2.07;;;1.10;;
18580;SDS011;9420;50.876;7.012;2023-03-11T12:52:18;3.37;;;1.33;;
18580;SDS011;9420;50.876;7.012;2023-03-11T12:58:02;6.53;;;1.20;;
18580;SDS011;9420;50.876;7.012;2023-03-11T13:01:06;2.87;;;0.93;;
18580;SDS011;9420;50.876;7.012;2023-03-11T13:04:00;8.63;;;1.47;;
18580;SDS011;9420;50.876;7.012;2023-03-11T13:06:59;3.70;;;0.80;;
18580;SDS011;9420;50.876;7.012;2023-03-11T13:10:19;3.13;;;0.90;;
18580;SDS011;9420;50.876;7.012;2023-03-11T13:25:40;1.47;;;0.83;;
18580;SDS011;9420;50.876;7.012;2023-03-11T13:28:26;4.57;;;0.77;;
18580;SDS011;9420;50.876;7.012;2023-03-11T13:31:26;3.67;;;1.27;;
18580;SDS011;9420;50.876;7.012;2023-03-11T13:34:20;1.50;;;0.90;;
18580;SDS011;9420;50.876;7.012;2023-03-11T13:37:01;4.23;;;0.83;;
18580;SDS011;9420;50.876;7.012;2023-03-11T13:39:44;5.37;;;1.10;;
18580;SDS011;9420;50.876;7.012;2023-03-11T13:42:29;2.27;;;1.03;;
18580;SDS011;9420;50.876;7.012;2023-03-11T13:45:04;4.87;;;0.70;;
18580;SDS011;9420;50.876;7.012;2023-03-11T13:47:42;3.07;;;1.10;;
18580;SDS011;9420;50.876;7.012;2023-03-11T13:50:16;10.00;;;1.30;;
18580;SDS011;9420;50.876;7.012;2023-03-11T13:52:51;2.63;;;0.90;;
18580;SDS011;9420;50.876;7.012;2023-03-11T13:55:20;3.00;;;1.27;;
18580;SDS011;9420;50.876;7.012;2023-03-11T13:57:54;2.87;;;1.23;;
18580;SDS011;9420;50.876;7.012;2023-03-11T14:00:24;6.53;;;1.43;;
18580;SDS011;9420;50.876;7.012;2023-03-11T14:02:54;3.83;;;1.37;;
18580;SDS011;9420;50.876;7.012;2023-03-11T14:05:25;5.53;;;1.40;;
18580;SDS011;9420;50.876;7.012;2023-03-11T14:08:09;4.47;;;1.10;;
18580;SDS011;9420;50.876;7.012;2023-03-11T14:10:38;4.90;;;1.03;;
18580;SDS011;9420;50.876;7.012;2023-03-11T14:13:15;2.83;;;0.83;;
18580;SDS011;9420;50.876;7.012;2023-03-11T14:15:46;2.67;;;1.27;;
18580;SDS011;9420;50.876;7.012;2023-03-11T14:18:25;2.63;;;0.93;;
18580;SDS011;9420;50.876;7.012;2023-03-11T14:20:59;5.03;;;0.87;;
18580;SDS011;9420;50.876;7.012;2023-03-11T14:23:29;2.37;;;1.20;;
18580;SDS011;9420;50.876;7.012;2023-03-11T14:26:01;2.13;;;0.83;;
18580;SDS011;9420;50.876;7.012;2023-03-11T14:28:35;1.73;;;0.97;;
18580;SDS011;9420;50.876;7.012;2023-03-11T14:31:18;2.60;;;0.90;;
18580;SDS011;9420;50.876;7.012;2023-03-11T14:33:56;2.13;;;0.83;;
18580;SDS011;9420;50.876;7.012;2023-03-11T14:36:28;1.90;;;1.20;;
18580;SDS011;9420;50.876;7.012;2023-03-11T14:38:57;4.50;;;1.10;;
18580;SDS011;9420;50.876;7.012;2023-03-11T14:41:24;1.60;;;0.97;;
18580;SDS011;9420;50.876;7.012;2023-03-11T14:43:51;3.03;;;1.07;;
18580;SDS011;9420;50.876;7.012;2023-03-11T14:46:22;5.33;;;0.87;;
18580;SDS011;9420;50.876;7.012;2023-03-11T14:48:54;7.10;;;1.13;;
18580;SDS011;9420;50.876;7.012;2023-03-11T14:51:25;1.60;;;0.83;;
18580;SDS011;9420;50.876;7.012;2023-03-11T14:54:01;2.03;;;1.30;;
18580;SDS011;9420;50.876;7.012;2023-03-11T14:56:41;2.57;;;1.10;;
18580;SDS011;9420;50.876;7.012;2023-03-11T14:59:17;8.33;;;1.53;;
18580;SDS011;9420;50.876;7.012;2023-03-11T15:01:52;4.90;;;1.33;;
18580;SDS011;9420;50.876;7.012;2023-03-11T15:04:44;5.20;;;0.93;;
18580;SDS011;9420;50.876;7.012;2023-03-11T15:07:12;3.43;;;1.10;;
18580;SDS011;9420;50.876;7.012;2023-03-11T15:09:40;2.50;;;0.93;;
18580;SDS011;9420;50.876;7.012;2023-03-11T15:14:57;1.73;;;1.23;;
18580;SDS011;9420;50.876;7.012;2023-03-11T15:17:26;4.67;;;0.80;;
18580;SDS011;9420;50.876;7.012;2023-03-11T15:19:56;3.13;;;1.40;;
18580;SDS011;9420;50.876;7.012;2023-03-11T15:22:24;12.60;;;1.67;;
18580;SDS011;9420;50.876;7.012;2023-03-11T15:24:57;3.57;;;1.50;;
18580;SDS011;9420;50.876;7.012;2023-03-11T15:27:28;4.10;;;1.23;;
18580;SDS011;9420;50.876;7.012;2023-03-11T15:29:57;4.30;;;1.40;;
18580;SDS011;9420;50.876;7.012;2023-03-11T15:32:37;6.07;;;1.30;;
18580;SDS011;9420;50.876;7.012;2023-03-11T15:35:16;2.03;;;1.20;;
18580;SDS011;9420;50.876;7.012;2023-03-11T15:37:46;4.83;;;1.40;;
18580;SDS011;9420;50.876;7.012;2023-03-11T15:40:20;3.67;;;1.20;;
18580;SDS011;9420;50.876;7.012;2023-03-11T15:43:03;1.93;;;0.93;;
18580;SDS011;9420;50.876;7.012;2023-03-11T15:45:47;3.00;;;1.03;;
18580;SDS011;9420;50.876;7.012;2023-03-11T15:48:16;3.20;;;1.30;;
18580;SDS011;9420;50.876;7.012;2023-03-11T15:50:47;5.87;;;1.70;;
18580;SDS011;9420;50.876;7.012;2023-03-11T15:53:16;4.40;;;1.37;;
18580;SDS011;9420;50.876;7.012;2023-03-11T15:55:44;3.03;;;1.47;;
18580;SDS011;9420;50.876;7.012;2023-03-11T15:58:13;5.37;;;2.10;;
18580;SDS011;9420;50.876;7.012;2023-03-11T16:00:44;3.47;;;1.30;;
18580;SDS011;9420;50.876;7.012;2023-03-11T16:03:14;4.40;;;1.27;;